Time;durP1;ratioP1;P1;durP2;ratioP2;P2;SDS_P1;SDS_P2;PMS_P1;PMS_P2;Temp;Humidity;BMP_temperature;BMP_pressure;BME280_temperature;BME280_humidity;BME280_pressure;Samples;Min_cycle;Max_cycle;Signal;HPM_P1;HPM_P2
2024/03/29 00:02:04;;;;;;;4.17;2.80;;;16.60;72.80;;;;;;5048512;28;20311;-76
2024/03/29 00:04:29;;;;;;;5.22;3.08;;;16.60;72.70;;;;;;5050277;28;20020;-75
2024/03/29 00:06:55;;;;;;;3.90;2.93;;;16.50;72.80;;;;;;5047959;28;20021;-75
2024/03/29 00:09:21;;;;;;;6.00;2.70;;;16.50;72.60;;;;;;5048310;28;20036;-75
2024/03/29 00:11:46;;;;;;;5.97;2.97;;;16.50;72.70;;;;;;5049798;28;20024;-75
2024/03/29 00:14:12;;;;;;;6.33;2.80;;;16.50;72.80;;;;;;5048250;28;20573;-75
2024/03/29 00:16:38;;;;;;;5.33;2.70;;;16.50;72.60;;;;;;5047972;28;20032;-75
2024/03/29 00:19:03;;;;;;;5.13;2.40;;;16.50;72.60;;;;;;5044705;28;20483;-75
2024/03/29 00:21:29;;;;;;;4.83;2.60;;;16.50;72.70;;;;;;5045683;28;20021;-75
2024/03/29 00:23:55;;;;;;;6.77;2.93;;;16.50;72.70;;;;;;5050038;28;20049;-74
2024/03/29 00:26:20;;;;;;;3.90;2.30;;;16.50;72.70;;;;;;5048004;28;20032;-75
2024/03/29 00:28:46;;;;;;;4.87;2.90;;;16.50;72.60;;;;;;5050268;28;20058;-74
2024/03/29 00:31:11;;;;;;;5.50;2.40;;;16.50;72.70;;;;;;5049467;28;20024;-75
2024/03/29 00:33:38;;;;;;;5.67;2.33;;;16.50;72.80;;;;;;5048208;28;20055;-74
2024/03/29 00:36:04;;;;;;;5.25;2.38;;;16.50;72.60;;;;;;5049208;28;20055;-75
2024/03/29 00:38:29;;;;;;;3.83;2.20;;;16.50;72.70;;;;;;5047903;28;20458;-75
2024/03/29 00:40:55;;;;;;;5.03;2.57;;;16.40;72.80;;;;;;5048237;28;20296;-75
2024/03/29 00:43:21;;;;;;;4.07;2.27;;;16.40;72.70;;;;;;5048052;28;20032;-74
2024/03/29 00:45:46;;;;;;;8.23;2.50;;;16.40;72.80;;;;;;5049736;28;20017;-75
2024/03/29 00:48:15;;;;;;;4.20;2.20;;;16.40;72.70;;;;;;5048579;28;20056;-75
2024/03/29 00:50:41;;;;;;;4.32;2.10;;;16.40;72.80;;;;;;5049582;28;20025;-75
2024/03/29 00:53:06;;;;;;;3.37;2.03;;;16.40;72.60;;;;;;5047900;28;20079;-75
2024/03/29 00:55:32;;;;;;;3.37;1.73;;;16.40;72.50;;;;;;5048106;28;20025;-76
2024/03/29 00:57:58;;;;;;;3.13;1.80;;;16.40;72.40;;;;;;5049474;28;20036;-75
2024/03/29 01:00:23;;;;;;;2.83;1.70;;;16.40;72.60;;;;;;5047481;28;20036;-76
2024/03/29 01:02:49;;;;;;;3.87;1.87;;;16.40;72.40;;;;;;5048775;28;20032;-75
2024/03/29 01:05:15;;;;;;;2.97;1.70;;;16.40;72.60;;;;;;5047437;28;20024;-75
2024/03/29 01:07:41;;;;;;;5.00;2.07;;;16.40;72.60;;;;;;5047616;28;20060;-75
2024/03/29 01:10:08;;;;;;;3.30;1.83;;;16.30;72.70;;;;;;5049246;28;20146;-76
2024/03/29 01:12:38;;;;;;;3.83;1.92;;;16.30;72.50;;;;;;5048504;28;20029;-76
2024/03/29 01:15:04;;;;;;;3.75;1.90;;;16.40;72.70;;;;;;5049323;28;20104;-75
2024/03/29 01:17:30;;;;;;;3.40;1.83;;;16.30;72.80;;;;;;5049813;28;20107;-74
2024/03/29 01:19:55;;;;;;;4.63;1.83;;;16.30;72.70;;;;;;5042583;28;20287;-75
2024/03/29 01:22:21;;;;;;;3.80;1.63;;;16.30;72.80;;;;;;5050701;28;20563;-75
2024/03/29 01:24:47;;;;;;;3.63;1.73;;;16.30;72.80;;;;;;5050686;28;20074;-74
2024/03/29 01:27:13;;;;;;;5.63;2.10;;;16.30;72.80;;;;;;5051574;28;20021;-76
2024/03/29 01:29:38;;;;;;;3.33;1.70;;;16.30;72.70;;;;;;5052447;28;20060;-75
2024/03/29 01:32:04;;;;;;;3.50;1.80;;;16.30;72.70;;;;;;5051446;28;20075;-75
2024/03/29 01:34:30;;;;;;;3.33;1.70;;;16.30;72.60;;;;;;5051331;28;20357;-75
2024/03/29 01:36:56;;;;;;;2.87;1.50;;;16.30;72.30;;;;;;5051322;28;20274;-75
2024/03/29 01:39:26;;;;;;;1.97;1.30;;;16.30;72.30;;;;;;5050810;28;20500;-75
2024/03/29 01:41:52;;;;;;;3.78;1.65;;;16.20;72.40;;;;;;5052641;28;20025;-75
2024/03/29 01:44:18;;;;;;;2.28;1.45;;;16.20;72.40;;;;;;5051202;28;20107;-75
2024/03/29 01:46:46;;;;;;;3.17;1.70;;;16.20;72.40;;;;;;5052195;28;20558;-74
2024/03/29 01:49:12;;;;;;;2.60;1.50;;;16.20;72.50;;;;;;5051068;28;20119;-76
2024/03/29 01:51:39;;;;;;;3.15;1.27;;;16.20;72.30;;;;;;5050865;28;20024;-76
2024/03/29 01:54:06;;;;;;;;;;;16.20;72.40;;;;;;5051330;28;20033;-75
2024/03/29 01:56:32;;;;;;;;;;;16.20;72.10;;;;;;5048891;28;19913;-76
2024/03/29 01:58:59;;;;;;;2.08;1.05;;;16.10;72.40;;;;;;5052648;28;19909;-74
2024/03/29 02:01:27;;;;;;;2.67;1.20;;;16.10;72.50;;;;;;5050804;28;20056;-76
2024/03/29 02:03:52;;;;;;;3.55;1.27;;;16.10;72.50;;;;;;5051999;28;20025;-75
2024/03/29 02:06:19;;;;;;;2.77;1.40;;;16.20;72.70;;;;;;5052389;28;20368;-75
2024/03/29 02:08:44;;;;;;;1.45;1.08;;;16.10;72.60;;;;;;5050887;28;20382;-75
2024/03/29 02:11:10;;;;;;;2.67;1.27;;;16.10;72.50;;;;;;5050314;28;20086;-75
2024/03/29 02:13:37;;;;;;;2.30;1.00;;;16.10;72.60;;;;;;5049965;28;20032;-75
2024/03/29 02:16:03;;;;;;;3.22;1.33;;;16.10;72.60;;;;;;5050770;28;20025;-75
2024/03/29 02:18:28;;;;;;;2.13;1.10;;;16.10;72.60;;;;;;5050257;28;20626;-75
2024/03/29 02:20:54;;;;;;;2.33;1.30;;;16.10;72.60;;;;;;5041101;28;20060;-75
2024/03/29 02:23:29;;;;;;;3.13;1.40;;;16.10;72.60;;;;;;5052053;28;20700;-75
2024/03/29 02:25:55;;;;;;;1.83;1.15;;;16.10;72.60;;;;;;5050455;28;20063;-75
2024/03/29 02:28:23;;;;;;;2.65;1.23;;;16.10;72.60;;;;;;5051403;28;20025;-75
2024/03/29 02:30:49;;;;;;;1.83;1.10;;;16.10;72.60;;;;;;5079416;28;20131;-74
2024/03/29 02:33:15;;;;;;;;;;;16.10;72.70;;;;;;5050331;28;20485;-74
2024/03/29 02:35:41;;;;;;;1.63;1.03;;;16.10;72.70;;;;;;5051031;28;19908;-76
2024/03/29 02:38:06;;;;;;;3.47;0.90;;;16.10;72.90;;;;;;5051870;28;20258;-75
2024/03/29 02:40:32;;;;;;;2.00;0.90;;;16.00;72.70;;;;;;5050414;28;20033;-76
2024/03/29 02:42:58;;;;;;;1.53;0.90;;;16.00;72.90;;;;;;5049689;28;20025;-75
2024/03/29 02:45:23;;;;;;;2.07;1.30;;;16.00;73.00;;;;;;5051266;28;20032;-75
2024/03/29 02:47:49;;;;;;;4.27;1.27;;;16.00;73.00;;;;;;5051589;28;20025;-75
2024/03/29 02:50:16;;;;;;;3.20;1.43;;;16.00;72.80;;;;;;5052217;28;20350;-74
2024/03/29 02:52:42;;;;;;;2.28;1.08;;;16.00;73.10;;;;;;5049679;28;20526;-75
2024/03/29 02:55:10;;;;;;;1.80;0.57;;;16.00;72.90;;;;;;5038098;28;20021;-75
2024/03/29 02:57:36;;;;;;;2.05;1.23;;;16.00;73.00;;;;;;5044232;28;20028;-76
2024/03/29 03:00:03;;;;;;;1.55;0.90;;;16.00;72.90;;;;;;5038550;28;20043;-75
2024/03/29 03:02:28;;;;;;;4.97;1.20;;;16.00;72.70;;;;;;5044605;28;20030;-76
2024/03/29 03:04:54;;;;;;;1.60;0.93;;;16.00;72.70;;;;;;5045427;28;20502;-75
2024/03/29 03:12:48;;;;;;;1.58;0.70;;;16.00;72.70;;;;;;5039077;28;20064;-74
2024/03/29 03:15:14;;;;;;;1.60;0.80;;;15.90;72.70;;;;;;5049656;28;20048;-75
2024/03/29 03:17:40;;;;;;;2.23;0.90;;;16.00;72.60;;;;;;5050070;28;20060;-74
2024/03/29 03:20:06;;;;;;;1.17;0.77;;;15.90;72.50;;;;;;5051111;28;20067;-75
2024/03/29 03:22:32;;;;;;;1.60;0.90;;;15.90;72.70;;;;;;5049582;28;20029;-76
2024/03/29 03:24:58;;;;;;;2.53;0.80;;;15.90;72.90;;;;;;5049211;28;20174;-75
2024/03/29 03:27:24;;;;;;;1.43;0.90;;;15.90;72.70;;;;;;5049019;28;20032;-74
2024/03/29 03:29:50;;;;;;;1.58;0.88;;;15.90;72.90;;;;;;5036842;28;20470;-75
2024/03/29 03:32:16;;;;;;;2.80;0.80;;;15.90;72.80;;;;;;5050643;28;20105;-75
2024/03/29 03:34:42;;;;;;;1.40;0.80;;;15.90;72.70;;;;;;5050151;28;20413;-75
2024/03/29 03:37:07;;;;;;;1.50;0.87;;;15.90;72.80;;;;;;5050133;28;20025;-74
2024/03/29 03:39:33;;;;;;;2.37;1.07;;;15.90;72.70;;;;;;5049129;28;20052;-75
2024/03/29 03:41:59;;;;;;;1.67;0.80;;;15.90;72.80;;;;;;5049984;28;20096;-75
2024/03/29 03:44:25;;;;;;;2.30;0.80;;;15.90;72.80;;;;;;5048944;28;20094;-75
2024/03/29 03:46:51;;;;;;;1.20;0.70;;;15.90;72.50;;;;;;5049043;28;20068;-75
2024/03/29 03:49:17;;;;;;;1.48;0.75;;;15.90;72.70;;;;;;5049146;28;20024;-75
2024/03/29 03:51:43;;;;;;;0.80;0.67;;;15.90;72.40;;;;;;5050382;28;20100;-76
2024/03/29 03:54:08;;;;;;;2.53;0.97;;;15.90;72.50;;;;;;5050471;28;20150;-75
2024/03/29 03:56:34;;;;;;;1.57;0.80;;;15.80;72.20;;;;;;5050176;28;20074;-75
2024/03/29 03:59:00;;;;;;;1.87;0.80;;;15.80;72.40;;;;;;5048630;28;20485;-75
2024/03/29 04:01:25;;;;;;;2.80;0.90;;;15.80;72.50;;;;;;5048135;28;20028;-75
2024/03/29 04:03:51;;;;;;;2.40;0.80;;;15.90;72.60;;;;;;5036706;28;20025;-75
2024/03/29 04:06:17;;;;;;;1.33;0.73;;;15.80;72.70;;;;;;5048972;28;20033;-75
2024/03/29 04:08:44;;;;;;;0.80;0.70;;;15.80;72.50;;;;;;5050126;28;20017;-75
2024/03/29 04:11:10;;;;;;;1.60;0.77;;;15.80;72.70;;;;;;5050051;28;20067;-75
2024/03/29 04:13:38;;;;;;;1.50;0.70;;;15.80;72.60;;;;;;5048213;28;20037;-77
2024/03/29 04:16:05;;;;;;;2.28;0.80;;;15.80;72.50;;;;;;5050339;28;20025;-76
2024/03/29 04:18:31;;;;;;;2.25;0.80;;;15.80;72.60;;;;;;5049835;28;20059;-75
2024/03/29 04:21:01;;;;;;;2.43;0.70;;;15.80;72.80;;;;;;5050363;28;20032;-75
2024/03/29 04:23:27;;;;;;;2.72;0.70;;;15.80;72.60;;;;;;5047840;28;20033;-75
2024/03/29 04:25:56;;;;;;;1.10;0.70;;;15.80;72.70;;;;;;5048208;28;20066;-75
2024/03/29 04:28:23;;;;;;;1.73;0.70;;;15.80;72.60;;;;;;5050193;28;20075;-75
2024/03/29 04:30:59;;;;;;;2.10;0.65;;;15.80;72.70;;;;;;5049782;28;20031;-75
2024/03/29 04:33:25;;;;;;;0.90;0.60;;;15.70;72.50;;;;;;5050370;28;20101;-76
2024/03/29 04:36:05;;;;;;;1.23;0.77;;;15.80;72.60;;;;;;5048291;28;20033;-75
2024/03/29 04:38:31;;;;;;;1.17;0.57;;;15.80;72.60;;;;;;5050028;28;20021;-73
2024/03/29 04:40:58;;;;;;;2.42;0.95;;;15.70;72.60;;;;;;5049841;28;20032;-75
2024/03/29 04:43:27;;;;;;;0.80;0.50;;;15.70;72.70;;;;;;5049628;28;20036;-75
2024/03/29 04:46:22;;;;;;;1.63;0.70;;;15.70;72.80;;;;;;5048143;28;20378;-75
2024/03/29 04:48:50;;;;;;;2.92;0.63;;;15.70;72.70;;;;;;5026482;28;20045;-76
2024/03/29 04:51:15;;;;;;;2.90;0.60;;;15.70;72.90;;;;;;5027521;28;20018;-75
2024/03/29 04:53:41;;;;;;;3.33;1.20;;;15.70;72.80;;;;;;5020937;28;20123;-74
2024/03/29 04:56:07;;;;;;;3.20;0.60;;;15.70;72.80;;;;;;5009740;28;20084;-76
2024/03/29 04:58:33;;;;;;;3.50;0.80;;;15.70;72.90;;;;;;5030934;28;20059;-74
2024/03/29 05:00:59;;;;;;;1.33;0.63;;;15.70;72.90;;;;;;5012412;28;20065;-75
2024/03/29 05:03:24;;;;;;;0.93;0.70;;;15.70;72.90;;;;;;5022073;28;20117;-75
2024/03/29 05:05:51;;;;;;;1.10;0.70;;;15.70;73.00;;;;;;5012715;28;20044;-75
2024/03/29 05:08:18;;;;;;;3.47;0.80;;;15.70;72.90;;;;;;5030676;28;20041;-75
2024/03/29 05:10:44;;;;;;;2.03;0.70;;;15.70;72.80;;;;;;5030789;28;20037;-74
2024/03/29 05:13:10;;;;;;;0.80;0.60;;;15.60;72.70;;;;;;5030072;28;20030;-76
2024/03/29 05:15:36;;;;;;;1.00;0.50;;;15.70;72.80;;;;;;5028754;28;20037;-74
2024/03/29 05:18:03;;;;;;;3.08;0.50;;;15.60;72.70;;;;;;5030411;28;20050;-75
2024/03/29 05:20:30;;;;;;;0.50;0.50;;;15.70;72.60;;;;;;5030301;28;20100;-75
2024/03/29 05:22:55;;;;;;;1.42;0.60;;;15.60;72.80;;;;;;5030491;28;20507;-75
2024/03/29 05:25:21;;;;;;;3.67;0.60;;;15.70;72.60;;;;;;5038298;28;20080;-75
2024/03/29 05:27:47;;;;;;;0.93;0.60;;;15.60;72.80;;;;;;5052143;28;20477;-75
2024/03/29 05:30:13;;;;;;;3.25;0.70;;;15.60;72.70;;;;;;5051633;28;20154;-75
2024/03/29 05:32:39;;;;;;;1.07;0.53;;;15.60;73.00;;;;;;5052807;28;20051;-75
2024/03/29 05:35:05;;;;;;;1.75;0.68;;;15.60;72.70;;;;;;5051626;28;20117;-74
2024/03/29 05:37:31;;;;;;;0.70;0.40;;;15.60;72.70;;;;;;5051090;28;20120;-74
2024/03/29 05:39:59;;;;;;;1.37;0.40;;;15.60;72.90;;;;;;5051562;28;20037;-74
2024/03/29 05:42:31;;;;;;;1.60;0.70;;;15.60;72.90;;;;;;5052824;28;20036;-74
2024/03/29 05:44:57;;;;;;;1.42;0.45;;;15.60;72.70;;;;;;5051583;28;20025;-75
2024/03/29 05:47:22;;;;;;;1.08;0.60;;;15.60;72.80;;;;;;5047382;28;20078;-75
2024/03/29 05:49:49;;;;;;;0.50;0.30;;;15.60;72.70;;;;;;5052573;28;20052;-75
2024/03/29 05:52:15;;;;;;;2.95;0.73;;;15.60;72.60;;;;;;5051183;28;20051;-74
2024/03/29 05:54:44;;;;;;;0.73;0.40;;;15.60;72.90;;;;;;5051227;28;20061;-75
2024/03/29 05:57:10;;;;;;;0.93;0.40;;;15.60;72.40;;;;;;5040805;28;20022;-75
2024/03/29 05:59:37;;;;;;;1.92;0.28;;;15.60;72.60;;;;;;5050152;28;20086;-74
2024/03/29 06:02:03;;;;;;;1.13;0.60;;;15.60;72.60;;;;;;5046709;28;20033;-76
2024/03/29 06:04:32;;;;;;;1.75;0.60;;;15.60;72.50;;;;;;5051222;28;20082;-75
2024/03/29 06:07:02;;;;;;;0.98;0.43;;;15.60;72.50;;;;;;5050804;28;20021;-75
2024/03/29 06:09:28;;;;;;;0.50;0.40;;;15.60;72.50;;;;;;5051111;28;20029;-75
2024/03/29 06:11:57;;;;;;;0.43;0.27;;;15.60;72.40;;;;;;5052807;28;20079;-74
2024/03/29 06:17:23;;;;;;;1.50;0.70;;;15.60;72.50;;;;;;5051295;28;20040;-75
2024/03/29 06:19:56;;;;;;;0.50;0.38;;;15.60;72.50;;;;;;5052379;28;20429;-75
2024/03/29 06:22:23;;;;;;;0.80;0.40;;;15.70;72.40;;;;;;5050541;28;20039;-74
2024/03/29 06:24:51;;;;;;;0.70;0.47;;;15.70;72.30;;;;;;5052029;28;20045;-74
2024/03/29 06:27:22;;;;;;;0.30;0.30;;;15.70;72.20;;;;;;5050532;28;20405;-75
2024/03/29 06:29:49;;;;;;;0.55;0.25;;;15.70;72.30;;;;;;5051862;28;20477;-75
2024/03/29 06:32:16;;;;;;;1.08;0.50;;;15.70;72.30;;;;;;5051901;28;20020;-75
2024/03/29 06:34:41;;;;;;;1.25;0.80;;;15.70;72.30;;;;;;5051907;28;20240;-76
2024/03/29 06:37:07;;;;;;;0.60;0.40;;;15.70;72.20;;;;;;5051299;28;20650;-75
2024/03/29 06:39:33;;;;;;;0.50;0.33;;;15.70;72.00;;;;;;5050230;28;20029;-74
2024/03/29 06:41:59;;;;;;;0.60;0.27;;;15.80;72.00;;;;;;5051956;28;20063;-75
2024/03/29 06:44:24;;;;;;;0.70;0.40;;;15.80;71.80;;;;;;5050189;28;20021;-75
2024/03/29 06:46:51;;;;;;;1.77;0.47;;;15.90;71.70;;;;;;5049683;28;20032;-74
2024/03/29 06:49:17;;;;;;;0.73;0.40;;;15.90;71.50;;;;;;5050121;28;20470;-75
2024/03/29 06:51:43;;;;;;;0.52;0.30;;;15.90;71.30;;;;;;5050268;28;20513;-74
2024/03/29 06:54:09;;;;;;;0.70;0.30;;;15.90;71.10;;;;;;5051639;28;20056;-76
2024/03/29 06:56:35;;;;;;;0.40;0.20;;;15.90;71.00;;;;;;5051324;28;20025;-75
2024/03/29 06:59:00;;;;;;;0.63;0.30;;;16.00;71.00;;;;;;5051218;28;20292;-76
2024/03/29 07:01:26;;;;;;;2.60;0.93;;;16.00;70.90;;;;;;5051519;28;20060;-75
2024/03/29 07:03:52;;;;;;;0.80;0.50;;;16.00;70.80;;;;;;5050106;28;20025;-75
2024/03/29 07:06:18;;;;;;;1.60;0.60;;;16.10;70.50;;;;;;5050985;28;20078;-75
2024/03/29 07:08:43;;;;;;;1.70;0.60;;;16.20;70.50;;;;;;5082085;28;20040;-75
2024/03/29 07:11:10;;;;;;;1.07;0.30;;;16.10;70.30;;;;;;5049945;28;20523;-75
2024/03/29 07:13:36;;;;;;;0.98;0.55;;;16.20;70.50;;;;;;5050382;28;20029;-75
2024/03/29 07:16:02;;;;;;;0.83;0.50;;;16.10;70.50;;;;;;5049452;28;20390;-74
2024/03/29 07:18:27;;;;;;;0.83;0.83;;;16.30;70.40;;;;;;5049252;28;20306;-74
2024/03/29 07:20:53;;;;;;;0.50;0.23;;;16.40;69.90;;;;;;5049744;28;20735;-75
2024/03/29 07:23:20;;;;;;;0.73;0.40;;;16.30;70.10;;;;;;5049534;28;20025;-76
2024/03/29 07:25:57;;;;;;;0.43;0.25;;;16.40;69.90;;;;;;5049863;28;20152;-76
2024/03/29 07:28:22;;;;;;;2.83;0.40;;;16.70;69.10;;;;;;5050994;28;20037;-75
2024/03/29 07:30:50;;;;;;;0.53;0.30;;;16.80;68.60;;;;;;5050575;28;20032;-76
2024/03/29 07:33:15;;;;;;;1.42;0.40;;;17.00;67.90;;;;;;5050655;28;20039;-74
2024/03/29 07:35:42;;;;;;;1.20;0.60;;;17.40;66.80;;;;;;5046647;28;20043;-75
2024/03/29 07:38:08;;;;;;;0.22;0.22;;;17.20;67.50;;;;;;5045065;28;20025;-75
2024/03/29 07:40:34;;;;;;;1.30;0.52;;;17.10;67.40;;;;;;5048799;28;20148;-75
2024/03/29 07:43:00;;;;;;;1.63;0.95;;;17.40;66.70;;;;;;5050497;28;20024;-75
2024/03/29 07:45:26;;;;;;;0.77;0.68;;;17.20;67.20;;;;;;5050921;28;20489;-76
2024/03/29 07:47:53;;;;;;;0.40;0.25;;;17.00;67.80;;;;;;5050105;28;20027;-75
2024/03/29 07:50:19;;;;;;;2.15;1.05;;;17.00;68.10;;;;;;5048651;28;20207;-75
2024/03/29 07:52:45;;;;;;;2.83;0.45;;;17.00;68.40;;;;;;5049763;28;20036;-75
2024/03/29 07:55:11;;;;;;;0.45;0.40;;;17.20;67.70;;;;;;5050067;28;20041;-75
2024/03/29 07:57:36;;;;;;;1.33;0.40;;;17.50;66.50;;;;;;5049142;28;20029;-76
2024/03/29 08:00:03;;;;;;;0.53;0.30;;;17.40;66.70;;;;;;5050155;28;20021;-75
2024/03/29 08:02:30;;;;;;;1.67;1.10;;;17.30;67.10;;;;;;5049711;28;20542;-76
2024/03/29 08:04:55;;;;;;;1.55;0.50;;;17.90;66.50;;;;;;5048715;28;20025;-75
2024/03/29 08:07:21;;;;;;;2.80;0.50;;;18.00;65.30;;;;;;5049833;28;20073;-76
2024/03/29 08:09:47;;;;;;;0.43;0.30;;;18.00;65.00;;;;;;5050255;28;20027;-76
2024/03/29 08:12:12;;;;;;;0.40;0.30;;;18.00;65.10;;;;;;5048632;28;20458;-75
2024/03/29 08:14:38;;;;;;;1.53;0.50;;;18.20;64.70;;;;;;5048431;28;20090;-76
2024/03/29 08:17:07;;;;;;;2.17;0.50;;;18.40;63.80;;;;;;5048495;28;20025;-75
2024/03/29 08:19:34;;;;;;;11.00;0.82;;;18.40;64.00;;;;;;5048879;28;20067;-76
2024/03/29 08:22:00;;;;;;;9.13;0.60;;;18.50;63.90;;;;;;5049669;28;20104;-76
2024/03/29 08:24:27;;;;;;;1.20;0.45;;;18.80;63.00;;;;;;5050207;28;20660;-79
2024/03/29 08:26:53;;;;;;;;;;;18.60;63.70;;;;;;5048269;28;20029;-75
2024/03/29 08:29:18;;;;;;;8.27;1.23;;;18.70;63.80;;;;;;5048420;28;19909;-75
2024/03/29 08:31:44;;;;;;;3.97;0.57;;;18.90;63.40;;;;;;5049656;28;20723;-74
2024/03/29 08:34:13;;;;;;;4.27;0.60;;;19.70;61.30;;;;;;5049032;28;20043;-77
2024/03/29 08:36:39;;;;;;;4.38;0.60;;;19.90;60.10;;;;;;5049628;28;20047;-76
2024/03/29 08:39:05;;;;;;;12.25;0.90;;;19.80;60.30;;;;;;5049195;28;20025;-75
2024/03/29 08:41:31;;;;;;;1.35;0.50;;;19.50;61.10;;;;;;5048575;28;20373;-75
2024/03/29 08:43:56;;;;;;;9.67;0.60;;;20.10;59.80;;;;;;5049601;28;20382;-77
2024/03/29 08:46:22;;;;;;;7.93;0.87;;;20.40;59.00;;;;;;5048397;28;20304;-75
2024/03/29 08:48:48;;;;;;;3.17;0.35;;;20.80;57.90;;;;;;5047902;28;20032;-75
2024/03/29 08:51:17;;;;;;;1.92;0.60;;;20.80;57.30;;;;;;5049579;28;20033;-76
2024/03/29 08:53:43;;;;;;;3.67;0.47;;;20.30;58.60;;;;;;5047967;28;20021;-76
2024/03/29 08:56:08;;;;;;;19.27;0.70;;;19.70;60.70;;;;;;5048569;28;20021;-75
2024/03/29 08:58:34;;;;;;;1.83;0.60;;;19.50;61.50;;;;;;5049846;28;20029;-76
2024/03/29 09:01:04;;;;;;;2.63;1.33;;;19.20;61.90;;;;;;5047651;28;20123;-74
2024/03/29 09:03:29;;;;;;;1.92;0.40;;;19.10;62.70;;;;;;5053267;28;20090;-74
2024/03/29 09:05:55;;;;;;;1.60;0.43;;;18.90;63.30;;;;;;5045040;28;20046;-77
2024/03/29 09:08:20;;;;;;;3.63;0.40;;;18.70;63.90;;;;;;5044353;28;20059;-76
2024/03/29 09:10:46;;;;;;;4.27;0.80;;;18.70;64.30;;;;;;5044467;28;20459;-75
2024/03/29 09:13:12;;;;;;;3.75;0.50;;;18.70;64.50;;;;;;5044198;28;20828;-77
2024/03/29 09:15:38;;;;;;;1.97;0.40;;;18.70;64.50;;;;;;5044606;28;20025;-78
2024/03/29 09:18:19;;;;;;;4.43;1.63;;;19.00;63.80;;;;;;5045795;28;20375;-77
2024/03/29 09:20:45;;;;;;;1.42;0.60;;;19.30;62.80;;;;;;5046234;28;20029;-76
2024/03/29 09:23:12;;;;;;;1.97;0.50;;;19.20;62.50;;;;;;5034571;28;20080;-77
2024/03/29 09:25:41;;;;;;;3.47;0.45;;;19.00;63.20;;;;;;5043489;28;20048;-76
2024/03/29 09:28:06;;;;;;;5.30;0.70;;;19.00;63.80;;;;;;5044203;28;20051;-77
2024/03/29 09:30:32;;;;;;;0.87;0.57;;;18.90;64.10;;;;;;5041851;28;20033;-76
2024/03/29 09:32:58;;;;;;;7.68;0.50;;;18.90;64.30;;;;;;5044436;28;20032;-76
2024/03/29 09:35:24;;;;;;;3.30;1.00;;;18.80;64.40;;;;;;5045916;28;20075;-76
2024/03/29 09:37:50;;;;;;;1.00;0.40;;;18.70;64.70;;;;;;5045666;28;20055;-76
2024/03/29 09:40:16;;;;;;;2.30;0.93;;;18.70;64.80;;;;;;5048153;28;20076;-75
2024/03/29 09:42:45;;;;;;;2.50;0.40;;;18.70;64.80;;;;;;5047720;28;20429;-75
2024/03/29 09:45:11;;;;;;;6.55;0.50;;;18.70;64.60;;;;;;5049398;28;20080;-76
2024/03/29 09:47:39;;;;;;;2.28;0.40;;;18.70;64.50;;;;;;5049293;28;20037;-75
2024/03/29 09:50:07;;;;;;;4.32;0.52;;;18.80;64.50;;;;;;5048802;28;20470;-77
2024/03/29 09:52:34;;;;;;;4.55;0.52;;;19.00;64.00;;;;;;5048211;28;20036;-77
2024/03/29 09:55:00;;;;;;;;;;;18.90;64.40;;;;;;5048077;28;20595;-75
2024/03/29 09:57:29;;;;;;;;;;;19.00;64.20;;;;;;5049959;28;19909;-77
2024/03/29 09:59:56;;;;;;;1.42;0.40;;;18.70;65.00;;;;;;5047368;28;19966;-77
2024/03/29 10:02:26;;;;;;;;;;;18.50;65.60;;;;;;5047360;28;20029;-75
2024/03/29 10:04:54;;;;;;;3.28;0.50;;;18.40;66.50;;;;;;5048723;28;19999;-77
2024/03/29 10:07:20;;;;;;;2.97;0.55;;;18.40;66.50;;;;;;5048908;28;20336;-76
2024/03/29 10:09:46;;;;;;;0.90;0.20;;;18.40;66.40;;;;;;5048083;28;20033;-76
2024/03/29 10:12:12;;;;;;;1.83;0.55;;;18.40;66.30;;;;;;5048712;28;20528;-77
2024/03/29 10:14:59;;;;;;;1.67;0.30;;;18.30;66.30;;;;;;5048463;28;20075;-77
2024/03/29 10:17:25;;;;;;;1.33;0.50;;;18.40;66.30;;;;;;5047674;28;20376;-75
2024/03/29 10:19:51;;;;;;;2.50;0.57;;;18.40;66.30;;;;;;5046770;28;20033;-75
2024/03/29 10:22:17;;;;;;;1.80;0.40;;;18.30;67.20;;;;;;5048108;28;20025;-75
2024/03/29 10:24:42;;;;;;;3.43;1.00;;;18.30;67.10;;;;;;5046253;28;20044;-76
2024/03/29 10:27:08;;;;;;;0.50;0.43;;;18.40;66.90;;;;;;5046111;28;20128;-77
2024/03/29 10:29:34;;;;;;;0.23;0.23;;;18.70;66.00;;;;;;5046631;28;20033;-75
2024/03/29 10:32:01;;;;;;;2.07;0.60;;;19.00;65.60;;;;;;5048160;28;20029;-75
2024/03/29 10:34:33;;;;;;;1.05;0.50;;;18.60;66.30;;;;;;5048507;28;20036;-76
2024/03/29 10:37:00;;;;;;;4.63;0.50;;;18.50;67.20;;;;;;5048204;28;20492;-77
2024/03/29 10:39:26;;;;;;;1.75;0.52;;;18.40;67.50;;;;;;5045947;28;20043;-77
2024/03/29 10:41:53;;;;;;;2.97;0.77;;;18.40;67.80;;;;;;5047948;28;20036;-77
2024/03/29 10:44:20;;;;;;;4.40;0.85;;;18.70;67.10;;;;;;5048161;28;20017;-76
2024/03/29 10:46:49;;;;;;;3.15;0.35;;;18.70;67.00;;;;;;5047942;28;20385;-75
2024/03/29 10:49:17;;;;;;;2.63;0.30;;;18.70;67.20;;;;;;5046229;28;20870;-76
2024/03/29 10:51:43;;;;;;;1.80;0.70;;;19.50;64.60;;;;;;5046399;28;20032;-75
2024/03/29 10:54:12;;;;;;;5.95;0.90;;;19.50;64.80;;;;;;5046529;28;20102;-76
2024/03/29 10:56:42;;;;;;;1.40;0.68;;;19.50;64.60;;;;;;5047434;28;20029;-76
2024/03/29 10:59:21;;;;;;;8.35;0.77;;;19.80;63.90;;;;;;5047315;28;20021;-76
2024/03/29 11:01:56;;;;;;;2.33;0.52;;;19.70;63.70;;;;;;5043761;28;20077;-76
2024/03/29 11:04:31;;;;;;;1.58;0.40;;;19.60;64.30;;;;;;5047981;28;20537;-75
2024/03/29 11:07:01;;;;;;;0.70;0.70;;;19.50;64.60;;;;;;5033633;28;20060;-76
2024/03/29 11:09:31;;;;;;;0.50;0.40;;;19.20;65.60;;;;;;5047286;28;20429;-76
2024/03/29 11:11:58;;;;;;;1.45;0.40;;;19.80;64.20;;;;;;5047618;28;20053;-75
2024/03/29 11:14:31;;;;;;;1.27;0.30;;;19.80;64.10;;;;;;5047954;28;20079;-74
2024/03/29 11:16:58;;;;;;;4.43;0.70;;;19.40;64.80;;;;;;5047611;28;20032;-75
2024/03/29 11:19:24;;;;;;;0.30;0.30;;;19.10;66.00;;;;;;5047302;28;20127;-74
2024/03/29 11:21:52;;;;;;;2.28;0.30;;;18.90;66.50;;;;;;5045472;28;20025;-74
2024/03/29 11:24:20;;;;;;;2.22;0.55;;;18.80;67.10;;;;;;5047752;28;20477;-76
2024/03/29 11:26:46;;;;;;;4.22;1.30;;;18.70;67.40;;;;;;5046173;28;20021;-76
2024/03/29 11:29:22;;;;;;;2.10;0.57;;;18.60;67.50;;;;;;5047350;28;20029;-74
2024/03/29 11:31:55;;;;;;;6.15;0.60;;;18.60;67.90;;;;;;5047360;28;20087;-74
2024/03/29 11:34:21;;;;;;;2.30;0.40;;;18.60;67.90;;;;;;5031784;28;20135;-75
2024/03/29 11:36:47;;;;;;;3.25;0.73;;;18.80;67.50;;;;;;5046747;28;20032;-77
2024/03/29 11:39:23;;;;;;;2.60;0.70;;;18.80;67.10;;;;;;5046131;28;20021;-74
2024/03/29 11:41:49;;;;;;;5.22;0.68;;;19.10;66.30;;;;;;5047080;28;20052;-76
2024/03/29 11:44:15;;;;;;;0.82;0.50;;;19.00;66.70;;;;;;5045896;28;20374;-75
2024/03/29 11:46:43;;;;;;;3.88;0.40;;;18.90;67.30;;;;;;5046161;28;20041;-75
2024/03/29 11:49:09;;;;;;;1.85;0.50;;;19.10;66.80;;;;;;5046654;28;20112;-75
2024/03/29 11:51:34;;;;;;;4.07;0.80;;;19.10;66.60;;;;;;5046986;28;20100;-76
2024/03/29 11:54:00;;;;;;;1.20;0.63;;;19.30;65.80;;;;;;5045538;28;20082;-75
2024/03/29 11:56:26;;;;;;;3.45;1.10;;;19.30;64.90;;;;;;5046561;28;20032;-75
2024/03/29 11:58:53;;;;;;;5.30;1.50;;;19.20;65.10;;;;;;5045008;28;20033;-75
2024/03/29 12:01:19;;;;;;;10.13;2.97;;;19.30;64.60;;;;;;5044649;28;20115;-76
2024/03/29 12:03:45;;;;;;;7.07;3.53;;;19.30;65.20;;;;;;5044605;28;20124;-76
2024/03/29 12:06:12;;;;;;;12.85;3.60;;;19.40;65.30;;;;;;5051326;28;20415;-75
2024/03/29 12:08:39;;;;;;;13.23;3.33;;;19.50;65.40;;;;;;5050120;28;20104;-74
2024/03/29 12:11:06;;;;;;;16.95;4.45;;;19.50;65.20;;;;;;5049485;28;20025;-74
2024/03/29 12:13:32;;;;;;;20.70;5.72;;;19.50;65.50;;;;;;5048641;28;20079;-75
2024/03/29 12:16:00;;;;;;;16.77;3.93;;;19.40;65.80;;;;;;5050418;28;20025;-76
2024/03/29 12:18:28;;;;;;;17.90;5.03;;;19.40;66.20;;;;;;5048556;28;20622;-75
2024/03/29 12:20:55;;;;;;;13.30;4.57;;;19.40;66.30;;;;;;5048130;28;20048;-77
2024/03/29 12:23:21;;;;;;;19.00;4.47;;;19.50;66.20;;;;;;5048363;28;20733;-77
2024/03/29 12:25:50;;;;;;;14.18;5.40;;;19.50;66.20;;;;;;5048842;28;20111;-77
2024/03/29 12:28:16;;;;;;;17.23;5.05;;;19.50;66.00;;;;;;5048605;28;20048;-76
2024/03/29 12:30:43;;;;;;;17.52;4.90;;;19.50;66.30;;;;;;5048836;28;20424;-76
2024/03/29 12:33:15;;;;;;;13.90;4.32;;;19.60;66.30;;;;;;5048730;28;20029;-77
2024/03/29 12:35:45;;;;;;;14.90;4.72;;;19.50;66.70;;;;;;5048751;28;20032;-78
2024/03/29 12:38:13;;;;;;;17.63;4.70;;;19.40;67.20;;;;;;5048458;28;20108;-77
2024/03/29 12:40:40;;;;;;;14.15;5.00;;;19.40;67.30;;;;;;5048020;28;20041;-75
2024/03/29 12:43:08;;;;;;;15.00;4.03;;;19.30;67.60;;;;;;5048120;28;20048;-76
2024/03/29 12:45:36;;;;;;;17.10;4.72;;;19.30;67.80;;;;;;5048586;28;20021;-76
2024/03/29 12:48:02;;;;;;;11.57;4.75;;;19.30;67.80;;;;;;5040771;28;20075;-74
2024/03/29 12:50:31;;;;;;;14.13;3.95;;;19.40;67.80;;;;;;5050403;28;20028;-76
2024/03/29 12:53:02;;;;;;;11.32;4.28;;;19.40;67.70;;;;;;5048184;28;20151;-76
2024/03/29 12:55:34;;;;;;;10.18;3.75;;;19.50;67.50;;;;;;5049698;28;20067;-76